Aviation Digital Data Service (ADDS)

Output produced by METARs form (0253 UTC 06 July 2015)
found at http://aviationweather.gov/adds/metars/
 
KFKL 052320Z 0600/0624 10005KT P6SM BKN250 
     FM060800 VRB03KT 4SM BR BKN200 
     FM061500 14006KT P6SM VCSH BKN050 
     FM061900 18006KT 6SM -SHRA VCTS OVC035CB AMD LTD TO CLD VIS AND WIND